Latest Coastal Weather Observations for Cape Moreton

IDQ60701

Issued at 3:12 am EST Tuesday 28 April 2015 (issued every 10 minutes, with the page automatically refreshed every 10 minutes)

About coastal observations | Map of coastal stations | Coastal observations for QLD | Marine services | Other Formats
Station Details ID: 040043 Name: CAPE MORETON LIGHTHOUSE Lat: -27.03 Lon: 153.47 Height: 99.9 m
Data from the previous 72 hours. | See also: Recent months at Cape Moreton
Date/Time
EST
Temp

°C
Wind Pressure Rain
since 9am
mm
Weather Cloud Vis
km
Sea
Height
m
Swell
Dir
 
Speed
knots
Gust
knots
hPa Trend Height
m
Period
s
Dir
28/03:00am 19.2 S 12 18 1018.3 - 0.0 - - - - - - -
28/02:30am 18.8 S 11 13 1018.4 - 0.0 - - - - - - -
28/02:00am 18.4 SSW 11 13 1018.5 - 0.0 - - - - - - -
28/01:30am 18.8 S 9 12 1018.7 - 0.0 - - - - - - -
28/01:00am 18.3 SW 11 14 1018.6 - 0.0 - - - - - - -
28/12:30am 18.3 SW 12 14 1018.6 - 0.0 - - - - - - -
28/12:00am 19.3 WSW 10 12 1018.8 - 0.0 - - - - - - -
 
Date/Time
EST
Temp

°C
Wind Pressure Rain
since 9am
mm
Weather Cloud Vis
km
Sea
Height
m
Swell
Dir
 
Speed
knots
Gust
knots
hPa Trend Height
m
Period
s
Dir
27/11:30pm 19.4 SW 7 9 1018.9 - 0.0 - - - - - - -
27/11:00pm 20.5 SE 8 12 1018.9 - 0.0 - - - - - - -
27/10:30pm 20.6 SE 10 13 1018.9 - 0.0 - - - - - - -
27/10:00pm 20.5 ESE 9 11 1019.0 - 0.0 - - - - - - -
27/09:30pm 20.6 ESE 9 12 1018.8 - 0.0 - - - - - - -
27/09:00pm 20.6 SE 9 11 1018.9 - 0.0 - - - - - - -
27/08:30pm 20.3 ESE 9 11 1018.9 - 0.0 - - - - - - -
27/08:00pm 20.6 ESE 9 11 1018.7 - 0.0 - - - - - - -
27/07:30pm 20.3 ESE 8 12 1018.4 - 0.0 - - - - - - -
27/07:00pm 20.1 ESE 8 9 1018.0 - 0.0 - - - - - - -
27/06:30pm 20.0 ESE 7 9 1017.5 - 0.0 - - - - - - -
27/06:00pm 19.9 SE 7 9 1017.3 - 0.0 - - - - - - -
27/05:30pm 20.0 ESE 8 11 1016.9 - 0.0 - - - - - - -
27/05:00pm 20.3 SE 7 10 1016.7 - 0.0 - - - - - - -
27/04:30pm 20.7 SE 8 10 1016.6 - 0.0 - - - - - - -
27/04:00pm 20.9 SE 8 10 1016.2 - 0.0 - - - - - - -
27/03:30pm 21.2 SE 8 10 1016.1 - 0.0 - - - - - - -
27/03:00pm 21.3 SE 9 11 1016.0 - 0.0 - - - - - - -
27/02:30pm 21.5 SE 10 12 1015.9 - 0.0 - - - - - - -
27/02:00pm 21.4 SSE 12 14 1015.7 - 0.0 - - - - - - -
27/01:30pm 21.7 SE 11 15 1015.8 - 0.0 - - - - - - -
27/01:00pm 21.6 SE 12 15 1015.9 - 0.0 - - - - - - -
27/12:30pm 22.1 SSE 9 13 1016.2 - 0.0 - - - - - - -
27/12:00pm 21.6 SSE 10 13 1016.5 - 0.0 - - - - - - -
27/11:30am 22.1 SSE 10 13 1016.7 - 0.0 - - - - - - -
27/11:00am 21.9 S 9 14 1017.0 - 0.0 - - - - - - -
27/10:30am 21.6 S 10 14 1017.2 - 0.0 - - - - - - -
27/10:00am 21.5 S 9 13 1017.3 - 0.0 - - - - - - -
27/09:30am 20.4 SW 11 15 1017.4 - 0.0 - - - - - - -
27/09:00am 19.9 SW 10 15 1017.3 - 0.0 - - - - - - -
27/08:30am 18.8 SW 11 16 1017.2 - 0.0 - - - - - - -
27/08:00am 17.9 SW 12 15 1016.8 - 0.0 - - - - - - -
27/07:30am 16.9 SW 11 15 1016.5 - 0.0 - - - - - - -
27/07:00am 16.0 SW 13 16 1016.3 - 0.0 - - - - - - -
27/06:30am 15.5 SW 13 17 1016.0 - 0.0 - - - - - - -
27/06:00am 15.4 SW 13 16 1015.6 - 0.0 - - - - - - -
27/05:30am 15.6 SW 13 17 1015.4 - 0.0 - - - - - - -
27/05:00am 15.4 SW 13 17 1015.1 - 0.0 - - - - - - -
27/04:30am 15.7 SW 13 18 1014.7 - 0.0 - - - - - - -
27/04:00am 15.4 SW 11 15 1014.7 - 0.0 - - - - - - -
27/03:30am 15.5 SW 11 16 1014.6 - 0.0 - - - - - - -
27/03:00am 15.6 SW 13 16 1014.5 - 0.0 - - - - - - -
27/02:30am 15.9 SW 13 18 1014.3 - 0.0 - - - - - - -
27/02:00am 15.7 SW 12 16 1014.5 - 0.0 - - - - - - -
27/01:30am 15.8 SW 12 17 1014.5 - 0.0 - - - - - - -
27/01:00am 16.1 SW 11 16 1014.8 - 0.0 - - - - - - -
27/12:30am 16.4 SW 15 21 1014.6 - 0.0 - - - - - - -
27/12:00am 16.6 SW 12 19 1014.7 - 0.0 - - - - - - -
 
Date/Time
EST
Temp

°C
Wind Pressure Rain
since 9am
mm
Weather Cloud Vis
km
Sea
Height
m
Swell
Dir
 
Speed
knots
Gust
knots
hPa Trend Height
m
Period
s
Dir
26/11:33pm 16.7 SW 15 25 1014.5 - 0.0 - - - - - - -
26/11:30pm 16.8 SW 16 25 1014.6 - 0.0 - - - - - - -
26/11:08pm 16.9 SW 15 28 1014.7 - 0.0 - - - - - - -
26/11:00pm 16.8 SW 13 23 1014.8 - 0.0 - - - - - - -
26/10:30pm 16.8 SW 15 22 1014.7 - 0.0 - - - - - - -
26/10:00pm 17.0 SW 16 27 1014.8 - 0.0 - - - - - - -
26/09:55pm 17.0 SW 17 27 1015.0 - 0.0 - - - - - - -
26/09:30pm 17.1 SW 13 19 1015.4 - 0.0 - - - - - - -
26/09:00pm 17.4 SW 13 20 1014.8 - 0.0 - - - - - - -
26/08:30pm 17.6 SW 13 21 1014.9 - 0.0 - - - - - - -
26/08:00pm 17.7 SW 10 19 1014.9 - 0.0 - - - - - - -
26/07:30pm 18.0 WSW 15 23 1014.5 - 0.0 - - - - - - -
26/07:00pm 18.1 WSW 13 21 1014.2 - 0.0 - - - - - - -
26/06:30pm 18.2 WSW 11 21 1013.7 - 0.0 - - - - - - -
26/06:00pm 18.4 SW 13 19 1013.2 - 0.0 - - - - - - -
26/05:30pm 18.5 WSW 15 21 1012.2 - 0.0 - - - - - - -
26/05:00pm 19.5 WSW 14 20 1012.0 - 0.0 - - - - - - -
26/04:39pm 20.2 SW 15 25 1011.8 - 0.0 - - - - - - -
26/04:30pm 20.4 WSW 17 24 1011.4 - 0.0 - - - - - - -
26/04:00pm 21.2 WSW 15 22 1011.2 - 0.0 - - - - - - -
26/03:30pm 21.5 WSW 13 20 1010.8 - 0.0 - - - - - - -
26/03:00pm 21.8 WSW 14 20 1010.3 - 0.0 - - - - - - -
26/02:30pm 21.7 WSW 15 24 1010.3 - 0.0 - - - - - - -
26/02:00pm 22.2 SW 13 23 1010.0 - 0.0 - - - - - - -
26/01:30pm 22.0 WSW 16 23 1010.0 - 0.0 - - - - - - -
26/01:00pm 21.7 WSW 15 25 1009.9 - 0.0 - - - - - - -
26/12:40pm 21.6 WSW 15 25 1010.0 - 0.0 - - - - - - -
26/12:30pm 21.3 WSW 16 24 1009.9 - 0.0 - - - - - - -
26/12:06pm 20.9 WSW 17 27 1009.8 - 0.0 - - - - - - -
26/12:00pm 20.9 WSW 18 25 1009.9 - 0.0 - - - - - - -
26/11:31am 20.4 W 15 25 1010.3 - 0.0 - - - - - - -
26/11:30am 20.6 W 14 24 1010.3 - 0.0 - - - - - - -
26/11:00am 19.7 WSW 18 29 1010.4 - 0.0 - - - - - - -
26/10:30am 19.2 WSW 17 29 1011.1 - 0.0 - - - - - - -
26/10:26am 19.1 WSW 15 29 1011.1 - 0.0 - - - - - - -
26/10:00am 19.0 WSW 13 23 1011.6 - 0.0 - - - - - - -
26/09:39am 19.1 WSW 15 25 1011.8 - 0.0 - - - - - - -
26/09:30am 18.9 WSW 17 24 1011.8 - 0.0 - - - - - - -
26/09:00am 18.5 WSW 22 33 1011.4 - 0.0 - - - - - - -
26/08:30am 18.5 WSW 17 32 1011.5 - 0.0 - - - - - - -
26/08:00am 18.3 WSW 22 34 1011.3 - 0.0 - - - - - - -
26/07:30am 18.4 WSW 19 34 1011.2 - 0.0 - - - - - - -
26/07:11am 18.3 WSW 16 28 1010.9 - 0.0 - - - - - - -
26/07:00am 18.3 WSW 17 25 1010.7 - 0.0 - - - - - - -
26/06:30am 18.6 SW 20 30 1010.1 - 0.0 - - - - - - -
26/06:00am 18.9 SW 20 33 1009.8 - 0.0 - - - - - - -
26/05:30am 19.5 SW 18 29 1009.6 - 0.0 - - - - - - -
26/05:26am 19.4 SW 15 26 1009.5 - 0.0 - - - - - - -
26/05:00am 19.6 SW 13 20 1009.4 - 0.0 - - - - - - -
26/04:30am 20.1 SW 16 24 1009.0 - 0.0 - - - - - - -
26/04:14am 20.3 SW 15 25 1008.8 - 0.0 - - - - - - -
26/04:00am 20.3 SW 13 23 1008.7 - 0.0 - - - - - - -
26/03:30am 20.1 SW 12 17 1008.9 - 0.0 - - - - - - -
26/03:00am 20.5 WSW 12 16 1008.8 - 0.0 - - - - - - -
26/02:30am 21.0 WSW 12 15 1008.8 - 0.0 - - - - - - -
26/02:00am 21.4 WSW 12 16 1008.7 - 0.0 - - - - - - -
26/01:30am 22.0 WSW 13 19 1008.6 - 0.0 - - - - - - -
26/01:00am 22.2 W 12 15 1008.6 - 0.0 - - - - - - -
26/12:30am 22.3 WNW 11 15 1008.6 - 0.0 - - - - - - -
26/12:00am 22.4 WNW 11 16 1008.7 - 0.0 - - - - - - -
 
Date/Time
EST
Temp

°C
Wind Pressure Rain
since 9am
mm
Weather Cloud Vis
km
Sea
Height
m
Swell
Dir
 
Speed
knots
Gust
knots
hPa Trend Height
m
Period
s
Dir
25/11:30pm 22.8 WNW 13 17 1008.9 - 0.0 - - - - - - -
25/11:00pm 23.6 NW 16 21 1009.1 - 0.0 - - - - - - -
25/10:30pm 23.4 NW 14 19 1009.4 - 0.0 - - - - - - -
25/10:00pm 24.1 NNW 15 21 1009.4 - 0.0 - - - - - - -
25/09:30pm 24.3 NNW 15 20 1009.8 - 0.0 - - - - - - -
25/09:00pm 24.2 N 15 19 1009.9 - 0.0 - - - - - - -
25/08:30pm 23.9 N 13 17 1009.8 - 0.0 - - - - - - -
25/08:00pm 23.7 N 11 15 1009.5 - 0.0 - - - - - - -
25/07:30pm 23.7 NNE 11 14 1009.3 - 0.0 - - - - - - -
25/07:00pm 23.6 NNE 10 13 1009.0 - 0.0 - - - - - - -
25/06:30pm 23.6 NNE 10 13 1008.6 - 0.0 - - - - - - -
25/06:00pm 23.6 NNE 10 12 1008.4 - 0.0 - - - - - - -
25/05:30pm 23.6 NNE 9 11 1008.3 - 0.0 - - - - - - -
25/05:00pm 24.0 NNE 9 10 1008.2 - 0.0 - - - - - - -
25/04:30pm 24.5 NNE 8 10 1008.1 - 0.0 - - - - - - -
25/04:00pm 24.9 NNE 7 9 1007.9 - 0.0 - - - - - - -
25/03:30pm 25.1 NNE 6 8 1007.9 - 0.0 - - - - - - -
25/03:00pm 25.6 NNE 5 7 1008.0 - 0.0 - - - - - - -
25/02:30pm 25.9 N 6 8 1008.0 - 0.0 - - - - - - -
25/02:00pm 25.9 NNW 7 9 1008.1 - 0.0 - - - - - - -
25/01:30pm 26.3 WNW 8 10 1008.3 - 0.0 - - - - - - -
25/01:00pm 26.3 WNW 7 10 1008.5 - 0.0 - - - - - - -
25/12:30pm 26.2 W 7 10 1008.9 - 0.0 - - - - - - -
25/12:00pm 25.7 NE 6 10 1009.3 - 0.0 - - - - - - -
25/11:30am 26.3 NE 3 5 1009.7 - 0.0 - - - - - - -
25/11:00am 25.0 E 5 6 1010.0 - 0.0 - - - - - - -
25/10:30am 25.3 ESE 6 7 1010.4 - 0.0 - - - - - - -
25/10:00am 25.3 SE 6 7 1010.6 - 0.0 - - - - - - -
25/09:30am 24.1 SW 2 4 1010.8 - 0.0 - - - - - - -
25/09:00am 23.1 WSW 3 5 1010.8 - 0.0 - - - - - - -
25/08:30am 22.7 WSW 1 4 1010.7 - 0.0 - - - - - - -
25/08:00am 21.5 W 4 6 1010.6 - 0.0 - - - - - - -
25/07:30am 20.3 W 8 9 1010.5 - 0.0 - - - - - - -
25/07:00am 19.9 W 8 9 1010.2 - 0.0 - - - - - - -
25/06:30am 20.0 SSW 2 7 1010.1 - 0.0 - - - - - - -
25/06:00am 20.2 W 13 14 1009.4 - 0.0 - - - - - - -
25/05:30am 20.5 WNW 13 15 1009.3 - 0.0 - - - - - - -
25/05:00am 20.5 WNW 12 14 1009.1 - 0.0 - - - - - - -
25/04:30am 20.9 WNW 13 16 1009.0 - 0.0 - - - - - - -
25/04:00am 21.3 WNW 13 17 1008.9 - 0.0 - - - - - - -
25/03:30am 21.5 WNW 13 16 1009.0 - 0.0 - - - - - - -

Other Formats:

Comma delimited format used in spreadsheet applications
http://www.bom.gov.au/fwo/IDQ60701/IDQ60701.94594.axf

JavaScript Object Notation format (JSON) in row-major order
http://www.bom.gov.au/fwo/IDQ60701/IDQ60701.94594.json